Ship Status Report: callsign BATFR20

sailwx.info

Track history (hours):
 
Tides and Currents Weather Stations Pressure Air Temp Water Temp Dewpoint Dewpoint Depression Visibility Wind Speed Wind Dir Waves Ship Positions

Callsign BATFR20 (name unknown)

Last reported at 2018-Jan-19 06:00 UTC. Time now 2018-Jan-19 15:51 UTC.
Position N 43°06' E 005°24'.

Wind from 300 at 24 knots

Barometer 1013.4 mb
Air temperature 12.4 ° C
Dewpoint 9.2 ° C

Date/timePositionNaut miles runAvg speedWind from/ knotsBaromVisibWave heightAir tempDewpointWater temp
2018-Jan-19 06:00N 43°06' E 005°24'1414.5 300 / 241013.4 12.4 9.2
2018-Jan-19 05:00N 43°00' E 005°42'2121.3 300 / 301012.5 12.7 9.5
2018-Jan-19 04:00N 42°48' E 006°06'1817.9 290 / 311012.4 12.9 9.7
2018-Jan-19 03:00N 42°36' E 006°24'1918.7 280 / 331012.7 13.2 9.5
2018-Jan-19 02:00N 42°30' E 006°48'1817.9 270 / 321013.6 13.2 9.7
2018-Jan-19 01:00N 42°18' E 007°06'1817.9 260 / 361013.4 12.9 9.9
2018-Jan-19 00:00N 42°06' E 007°24'1918.8 260 / 331014.4 12.9 9.5
2018-Jan-18 23:00N 42°00' E 007°48'1818.0 260 / 291015.8 12.9 9.7
2018-Jan-18 22:00N 41°48' E 008°06'2221.6 260 / 271016.7 13.0 9.4
2018-Jan-18 21:00N 41°36' E 008°30'1514.7 260 / 231017.8 1.1 13.4 9.5
2018-Jan-18 20:00N 41°30' E 008°48'1818.1 260 / 281017.8 13.4 9.2
2018-Jan-18 19:00N 41°18' E 009°06'1514.8 250 / 301017.8 13.0 9.4
2018-Jan-18 18:00N 41°24' E 009°24'6 0.5 260 / 311016.3 12.9 9.0
2018-Jan-18 06:00N 41°30' E 009°24'1515.0 250 / 231018.7 11.2-0.3
2018-Jan-18 05:00N 41°18' E 009°12'1919.0 300 / 241020.5 11.5 3.5
2018-Jan-18 04:00N 41°24' E 008°48'2221.6 320 / 241021.2 11.9 4.2
2018-Jan-18 03:00N 41°36' E 008°24'1818.0 320 / 241021.6 11.9 3.7
2018-Jan-18 02:00N 41°48' E 008°06'2221.5 310 / 261021.6 11.9 2.0
2018-Jan-18 01:00N 42°00' E 007°42'1818.0 300 / 351020.7 11.7 1.2
2018-Jan-18 00:00N 42°12' E 007°24'1918.8 290 / 351020.4 11.7 3.2
2018-Jan-17 23:00N 42°18' E 007°00'1817.9 290 / 401019.8 11.2 1.2
2018-Jan-17 22:00N 42°30' E 006°42'1817.9 300 / 331021.2 11.4-0.5
2018-Jan-17 21:00N 42°42' E 006°24'1918.6 300 / 331020.9 11.4-0.7
2018-Jan-17 20:00N 42°48' E 006°00'1817.8 310 / 291020.9 11.5 0.4
2018-Jan-17 19:00N 43°00' E 005°42'1817.8 310 / 281020.7 11.7-1.2
2018-Jan-17 18:00N 43°12' E 005°24'6 0.6 320 / 261020.0 11.7-2.2
2018-Jan-17 08:00N 43°18' E 005°24'1212.0 290 / 191013.7 11.9 3.2
2018-Jan-17 07:00N 43°06' E 005°24'1918.5 300 / 451009.7 12.9 3.9
2018-Jan-17 06:00N 43°00' E 005°48'1313.2 290 / 441007.4 13.7 6.5
2018-Jan-17 05:00N 43°00' E 006°06'1414.5 280 / 351007.1 14.2 8.4
2018-Jan-17 04:00N 42°54' E 006°24'1817.8 270 / 471005.5 14.9 9.9
2018-Jan-17 03:00N 42°42' E 006°42'1110.7 270 / 421006.3 14.710.9
2018-Jan-17 02:00N 42°36' E 006°54'3316.3 280 / 471006.5 15.010.7
2018-Jan-17 00:00N 42°12' E 007°24'1818.0 250 / 361008.9 14.710.4
2018-Jan-16 23:00N 42°00' E 007°42'1514.7 250 / 351011.2 14.710.7
2018-Jan-16 22:00N 41°54' E 008°00'1818.0 240 / 311012.6 14.211.7
2018-Jan-16 21:00N 41°42' E 008°18'2221.6 250 / 331013.5 13.911.9
2018-Jan-16 20:00N 41°30' E 008°42'28 2.1 250 / 301014.0 14.211.7
2018-Jan-16 07:00N 41°36' E 009°18'1110.8 210 / 201015.5 12.9 8.0
2018-Jan-16 06:00N 41°30' E 009°30'1818.1 250 / 481013.2 13.2 9.2
2018-Jan-16 05:00N 41°18' E 009°12'1919.0 260 / 361018.2 13.2 8.7
2018-Jan-16 04:00N 41°24' E 008°48'1818.0 270 / 301019.7 13.2 8.7
2018-Jan-16 03:00N 41°36' E 008°30'2221.6 270 / 321020.1 13.2 8.9
2018-Jan-16 02:00N 41°48' E 008°06'1514.7 260 / 251020.3 12.9 9.5
2018-Jan-16 01:00N 41°54' E 007°48'2121.5 260 / 261020.0 12.7 8.7
2018-Jan-16 00:00N 42°06' E 007°24'1817.9 270 / 281020.7 12.4 8.4
2018-Jan-15 23:00N 42°18' E 007°06'2121.4 270 / 261021.4 11.9 8.2
2018-Jan-15 22:00N 42°30' E 006°42'1514.6 270 / 271021.2 12.0 8.9
2018-Jan-15 21:00N 42°36' E 006°24'2121.3 270 / 171020.8 12.2 8.4
2018-Jan-15 20:00N 42°48' E 006°00'40 1.1 250 / 151021.0 12.2 8.2
2018-Jan-14 07:00N 43°18' E 005°24'1212.0 090 / 111017.2 10.7 4.5
2018-Jan-14 06:00N 43°06' E 005°24'1918.5 110 / 231016.7 11.4 7.2
2018-Jan-14 05:00N 43°00' E 005°48'1817.8 100 / 221016.8 11.9 7.4
2018-Jan-14 04:00N 42°48' E 006°06'1817.9 100 / 131017.5 11.7 5.9
2018-Jan-14 03:00N 42°36' E 006°24'1514.6 090 / 91018.2 11.7 5.5
2018-Jan-14 02:00N 42°30' E 006°42'2121.4 070 / 91018.3 11.7 5.7
2018-Jan-14 01:00N 42°18' E 007°06'1514.6 060 / 71018.5 11.9 6.2
2018-Jan-14 00:00N 42°12' E 007°24'1818.0 140 / 41019.0 12.2 6.9
2018-Jan-13 23:00N 42°00' E 007°42'128 3.2 150 / 151019.6 12.4 7.0
2018-Jan-12 07:00N 43°18' E 005°24'1212.0 110 / 31017.4 7.9 3.2
2018-Jan-12 06:00N 43°06' E 005°24'1918.5 310 / 181015.2 9.4 4.4
2018-Jan-12 05:00N 43°00' E 005°48'1414.5 340 / 71014.8 10.2 5.2
2018-Jan-12 04:00N 42°54' E 006°06'1918.6 350 / 91014.4 11.2 4.7
2018-Jan-12 03:00N 42°48' E 006°30'1817.9 040 / 31014.4 11.7 6.9
2018-Jan-12 02:00N 42°36' E 006°48'2121.4 350 / 121013.8 12.2 8.5
2018-Jan-12 01:00N 42°24' E 007°12'1817.9 050 / 251012.0 12.2 8.7
2018-Jan-12 00:00N 42°12' E 007°30'1818.0 020 / 291010.2 11.9 8.4
2018-Jan-11 23:00N 42°00' E 007°48'1818.0 010 / 291009.0 12.4 7.9
2018-Jan-11 22:00N 41°48' E 008°06'2221.6 1007.7 12.2 8.4
2018-Jan-11 21:00N 41°36' E 008°30'1818.0 010 / 21009.5 11.9 8.9
2018-Jan-11 20:00N 41°24' E 008°48'1919.0 240 / 91008.9 11.2 7.7
2018-Jan-11 19:00N 41°18' E 009°12'1515.0 340 / 101008.8 12.2 8.2
2018-Jan-11 18:00N 41°30' E 009°24'0 0.0 020 / 211008.8 12.2 7.9
2018-Jan-11 06:00N 41°30' E 009°24'1312.8 260 / 81009.6 11.9 8.9
2018-Jan-11 05:00N 41°18' E 009°18'1413.5 210 / 61010.0 12.2 9.4
2018-Jan-11 04:00N 41°18' E 009°00'2221.6 300 / 111010.1 12.5 8.9
2018-Jan-11 03:00N 41°30' E 008°36'1818.0 290 / 81010.8 12.4 7.9
2018-Jan-11 02:00N 41°42' E 008°18'2221.5 280 / 71011.3 12.4 8.4
2018-Jan-11 01:00N 41°54' E 007°54'2121.5 270 / 71011.3 12.2 8.2
2018-Jan-11 00:00N 42°06' E 007°30'2121.5 270 / 101011.4 11.9 7.4
2018-Jan-10 23:00N 42°18' E 007°06'1817.9 260 / 81011.8 12.2 8.0
2018-Jan-10 22:00N 42°30' E 006°48'1918.7 300 / 41012.2 12.0 8.2
2018-Jan-10 21:00N 42°36' E 006°24'1817.9 010 / 51012.1 12.0 8.7
2018-Jan-10 20:00N 42°48' E 006°06'1817.8 050 / 101012.3 11.9 9.0
2018-Jan-10 19:00N 43°00' E 005°48'1918.5 080 / 81012.8 12.2 9.2
2018-Jan-10 18:00N 43°06' E 005°24'12 1.1 170 / 61012.8 12.5 8.4
2018-Jan-10 07:00N 43°18' E 005°24'1212.0 290 / 31014.3 12.9 6.7
2018-Jan-10 06:00N 43°06' E 005°24'1414.5 180 / 191013.6 13.2 7.4
2018-Jan-10 05:00N 43°00' E 005°42'2121.3 190 / 241014.1 13.4 8.9
2018-Jan-10 04:00N 42°48' E 006°06'1817.9 200 / 241014.8 13.4 8.7
2018-Jan-10 03:00N 42°36' E 006°24'1514.6 190 / 241015.9 13.4 9.9
2018-Jan-10 02:00N 42°30' E 006°42'2121.4 190 / 181017.1 13.410.9
2018-Jan-10 01:00N 42°18' E 007°06'1514.6 190 / 171017.7 13.410.9
2018-Jan-10 00:00N 42°12' E 007°24'1818.0 190 / 151018.6 13.411.0
2018-Jan-09 23:00N 42°00' E 007°42'2221.5 190 / 161019.4 13.710.4
2018-Jan-09 22:00N 41°48' E 008°06'1514.7 200 / 141020.0 13.9 9.5
2018-Jan-09 21:00N 41°42' E 008°24'1818.0 200 / 81020.9 13.7 9.7
2018-Jan-09 20:00N 41°30' E 008°42'2221.6 260 / 71020.9 13.7 8.9
2018-Jan-09 19:00N 41°18' E 009°06'1514.8 260 / 121021.0 13.9 8.4
2018-Jan-09 18:00N 41°24' E 009°24'1312.8 270 / 151020.3 13.7 9.7
2018-Jan-09 17:00N 41°36' E 009°18'4 0.4 1020.3 13.5 6.9
2018-Jan-09 07:00N 41°36' E 009°24'1918.6 210 / 211018.5 12.7 8.2
2018-Jan-09 06:00N 41°18' E 009°18'   200 / 71019.3 12.4 7.9
Track history (hours):
 
Tides and Currents Weather Stations Pressure Air Temp Water Temp Dewpoint Dewpoint Depression Visibility Wind Speed Wind Dir Waves Ship Positions

Callsign BATFR20 (name unknown)

Last reported at 2018-Jan-19 06:00 UTC. Time now 2018-Jan-19 15:51 UTC.
Position N 43°06' E 005°24'.

Wind from 300 at 24 knots

Barometer 1013.4 mb
Air temperature 12.4 ° C
Dewpoint 9.2 ° C

Date/timePositionNaut miles runAvg speedWind from/ knotsBaromVisibWave heightAir tempDewpointWater temp
2018-Jan-19 06:00N 43°06' E 005°24'1414.5 300 / 241013.4 12.4 9.2
2018-Jan-19 05:00N 43°00' E 005°42'2121.3 300 / 301012.5 12.7 9.5
2018-Jan-19 04:00N 42°48' E 006°06'1817.9 290 / 311012.4 12.9 9.7
2018-Jan-19 03:00N 42°36' E 006°24'1918.7 280 / 331012.7 13.2 9.5
2018-Jan-19 02:00N 42°30' E 006°48'1817.9 270 / 321013.6 13.2 9.7
2018-Jan-19 01:00N 42°18' E 007°06'1817.9 260 / 361013.4 12.9 9.9
2018-Jan-19 00:00N 42°06' E 007°24'1918.8 260 / 331014.4 12.9 9.5
2018-Jan-18 23:00N 42°00' E 007°48'1818.0 260 / 291015.8 12.9 9.7
2018-Jan-18 22:00N 41°48' E 008°06'2221.6 260 / 271016.7 13.0 9.4
2018-Jan-18 21:00N 41°36' E 008°30'1514.7 260 / 231017.8 1.1 13.4 9.5
2018-Jan-18 20:00N 41°30' E 008°48'1818.1 260 / 281017.8 13.4 9.2
2018-Jan-18 19:00N 41°18' E 009°06'1514.8 250 / 301017.8 13.0 9.4
2018-Jan-18 18:00N 41°24' E 009°24'6 0.5 260 / 311016.3 12.9 9.0
2018-Jan-18 06:00N 41°30' E 009°24'1515.0 250 / 231018.7 11.2-0.3
2018-Jan-18 05:00N 41°18' E 009°12'1919.0 300 / 241020.5 11.5 3.5
2018-Jan-18 04:00N 41°24' E 008°48'2221.6 320 / 241021.2 11.9 4.2
2018-Jan-18 03:00N 41°36' E 008°24'1818.0 320 / 241021.6 11.9 3.7
2018-Jan-18 02:00N 41°48' E 008°06'2221.5 310 / 261021.6 11.9 2.0
2018-Jan-18 01:00N 42°00' E 007°42'1818.0 300 / 351020.7 11.7 1.2
2018-Jan-18 00:00N 42°12' E 007°24'1918.8 290 / 351020.4 11.7 3.2
2018-Jan-17 23:00N 42°18' E 007°00'1817.9 290 / 401019.8 11.2 1.2
2018-Jan-17 22:00N 42°30' E 006°42'1817.9 300 / 331021.2 11.4-0.5
2018-Jan-17 21:00N 42°42' E 006°24'1918.6 300 / 331020.9 11.4-0.7
2018-Jan-17 20:00N 42°48' E 006°00'1817.8 310 / 291020.9 11.5 0.4
2018-Jan-17 19:00N 43°00' E 005°42'1817.8 310 / 281020.7 11.7-1.2
2018-Jan-17 18:00N 43°12' E 005°24'6 0.6 320 / 261020.0 11.7-2.2
2018-Jan-17 08:00N 43°18' E 005°24'1212.0 290 / 191013.7 11.9 3.2
2018-Jan-17 07:00N 43°06' E 005°24'1918.5 300 / 451009.7 12.9 3.9
2018-Jan-17 06:00N 43°00' E 005°48'1313.2 290 / 441007.4 13.7 6.5
2018-Jan-17 05:00N 43°00' E 006°06'1414.5 280 / 351007.1 14.2 8.4
2018-Jan-17 04:00N 42°54' E 006°24'1817.8 270 / 471005.5 14.9 9.9
2018-Jan-17 03:00N 42°42' E 006°42'1110.7 270 / 421006.3 14.710.9
2018-Jan-17 02:00N 42°36' E 006°54'3316.3 280 / 471006.5 15.010.7
2018-Jan-17 00:00N 42°12' E 007°24'1818.0 250 / 361008.9 14.710.4
2018-Jan-16 23:00N 42°00' E 007°42'1514.7 250 / 351011.2 14.710.7
2018-Jan-16 22:00N 41°54' E 008°00'1818.0 240 / 311012.6 14.211.7
2018-Jan-16 21:00N 41°42' E 008°18'2221.6 250 / 331013.5 13.911.9
2018-Jan-16 20:00N 41°30' E 008°42'28 2.1 250 / 301014.0 14.211.7
2018-Jan-16 07:00N 41°36' E 009°18'1110.8 210 / 201015.5 12.9 8.0
2018-Jan-16 06:00N 41°30' E 009°30'1818.1 250 / 481013.2 13.2 9.2
2018-Jan-16 05:00N 41°18' E 009°12'1919.0 260 / 361018.2 13.2 8.7
2018-Jan-16 04:00N 41°24' E 008°48'1818.0 270 / 301019.7 13.2 8.7
2018-Jan-16 03:00N 41°36' E 008°30'2221.6 270 / 321020.1 13.2 8.9
2018-Jan-16 02:00N 41°48' E 008°06'1514.7 260 / 251020.3 12.9 9.5
2018-Jan-16 01:00N 41°54' E 007°48'2121.5 260 / 261020.0 12.7 8.7
2018-Jan-16 00:00N 42°06' E 007°24'1817.9 270 / 281020.7 12.4 8.4
2018-Jan-15 23:00N 42°18' E 007°06'2121.4 270 / 261021.4 11.9 8.2
2018-Jan-15 22:00N 42°30' E 006°42'1514.6 270 / 271021.2 12.0 8.9
2018-Jan-15 21:00N 42°36' E 006°24'2121.3 270 / 171020.8 12.2 8.4
2018-Jan-15 20:00N 42°48' E 006°00'40 1.1 250 / 151021.0 12.2 8.2
2018-Jan-14 07:00N 43°18' E 005°24'1212.0 090 / 111017.2 10.7 4.5
2018-Jan-14 06:00N 43°06' E 005°24'1918.5 110 / 231016.7 11.4 7.2
2018-Jan-14 05:00N 43°00' E 005°48'1817.8 100 / 221016.8 11.9 7.4
2018-Jan-14 04:00N 42°48' E 006°06'1817.9 100 / 131017.5 11.7 5.9
2018-Jan-14 03:00N 42°36' E 006°24'1514.6 090 / 91018.2 11.7 5.5
2018-Jan-14 02:00N 42°30' E 006°42'2121.4 070 / 91018.3 11.7 5.7
2018-Jan-14 01:00N 42°18' E 007°06'1514.6 060 / 71018.5 11.9 6.2
2018-Jan-14 00:00N 42°12' E 007°24'1818.0 140 / 41019.0 12.2 6.9
2018-Jan-13 23:00N 42°00' E 007°42'128 3.2 150 / 151019.6 12.4 7.0
2018-Jan-12 07:00N 43°18' E 005°24'1212.0 110 / 31017.4 7.9 3.2
2018-Jan-12 06:00N 43°06' E 005°24'1918.5 310 / 181015.2 9.4 4.4
2018-Jan-12 05:00N 43°00' E 005°48'1414.5 340 / 71014.8 10.2 5.2
2018-Jan-12 04:00N 42°54' E 006°06'1918.6 350 / 91014.4 11.2 4.7
2018-Jan-12 03:00N 42°48' E 006°30'1817.9 040 / 31014.4 11.7 6.9
2018-Jan-12 02:00N 42°36' E 006°48'2121.4 350 / 121013.8 12.2 8.5
2018-Jan-12 01:00N 42°24' E 007°12'1817.9 050 / 251012.0 12.2 8.7
2018-Jan-12 00:00N 42°12' E 007°30'1818.0 020 / 291010.2 11.9 8.4
2018-Jan-11 23:00N 42°00' E 007°48'1818.0 010 / 291009.0 12.4 7.9
2018-Jan-11 22:00N 41°48' E 008°06'2221.6 1007.7 12.2 8.4
2018-Jan-11 21:00N 41°36' E 008°30'1818.0 010 / 21009.5 11.9 8.9
2018-Jan-11 20:00N 41°24' E 008°48'1919.0 240 / 91008.9 11.2 7.7
2018-Jan-11 19:00N 41°18' E 009°12'1515.0 340 / 101008.8 12.2 8.2
2018-Jan-11 18:00N 41°30' E 009°24'0 0.0 020 / 211008.8 12.2 7.9
2018-Jan-11 06:00N 41°30' E 009°24'1312.8 260 / 81009.6 11.9 8.9
2018-Jan-11 05:00N 41°18' E 009°18'1413.5 210 / 61010.0 12.2 9.4
2018-Jan-11 04:00N 41°18' E 009°00'2221.6 300 / 111010.1 12.5 8.9
2018-Jan-11 03:00N 41°30' E 008°36'1818.0 290 / 81010.8 12.4 7.9
2018-Jan-11 02:00N 41°42' E 008°18'2221.5 280 / 71011.3 12.4 8.4
2018-Jan-11 01:00N 41°54' E 007°54'2121.5 270 / 71011.3 12.2 8.2
2018-Jan-11 00:00N 42°06' E 007°30'2121.5 270 / 101011.4 11.9 7.4
2018-Jan-10 23:00N 42°18' E 007°06'1817.9 260 / 81011.8 12.2 8.0
2018-Jan-10 22:00N 42°30' E 006°48'1918.7 300 / 41012.2 12.0 8.2
2018-Jan-10 21:00N 42°36' E 006°24'1817.9 010 / 51012.1 12.0 8.7
2018-Jan-10 20:00N 42°48' E 006°06'1817.8 050 / 101012.3 11.9 9.0
2018-Jan-10 19:00N 43°00' E 005°48'1918.5 080 / 81012.8 12.2 9.2
2018-Jan-10 18:00N 43°06' E 005°24'12 1.1 170 / 61012.8 12.5 8.4
2018-Jan-10 07:00N 43°18' E 005°24'1212.0 290 / 31014.3 12.9 6.7
2018-Jan-10 06:00N 43°06' E 005°24'1414.5 180 / 191013.6 13.2 7.4
2018-Jan-10 05:00N 43°00' E 005°42'2121.3 190 / 241014.1 13.4 8.9
2018-Jan-10 04:00N 42°48' E 006°06'1817.9 200 / 241014.8 13.4 8.7
2018-Jan-10 03:00N 42°36' E 006°24'1514.6 190 / 241015.9 13.4 9.9
2018-Jan-10 02:00N 42°30' E 006°42'2121.4 190 / 181017.1 13.410.9
2018-Jan-10 01:00N 42°18' E 007°06'1514.6 190 / 171017.7 13.410.9
2018-Jan-10 00:00N 42°12' E 007°24'1818.0 190 / 151018.6 13.411.0
2018-Jan-09 23:00N 42°00' E 007°42'2221.5 190 / 161019.4 13.710.4
2018-Jan-09 22:00N 41°48' E 008°06'1514.7 200 / 141020.0 13.9 9.5
2018-Jan-09 21:00N 41°42' E 008°24'1818.0 200 / 81020.9 13.7 9.7
2018-Jan-09 20:00N 41°30' E 008°42'2221.6 260 / 71020.9 13.7 8.9
2018-Jan-09 19:00N 41°18' E 009°06'1514.8 260 / 121021.0 13.9 8.4
2018-Jan-09 18:00N 41°24' E 009°24'1312.8 270 / 151020.3 13.7 9.7
2018-Jan-09 17:00N 41°36' E 009°18'4 0.4 1020.3 13.5 6.9
2018-Jan-09 07:00N 41°36' E 009°24'1918.6 210 / 211018.5 12.7 8.2
2018-Jan-09 06:00N 41°18' E 009°18'   200 / 71019.3 12.4 7.9

Dump ship's entire track history